createdAt,value
2024-01-30T00:01:06.495Z,2.48
2024-01-30T00:03:37.131Z,2.49
2024-01-30T00:06:07.329Z,2.58
2024-01-30T00:08:37.623Z,2.65
2024-01-30T00:11:07.738Z,2.65
2024-01-30T00:13:37.769Z,2.68
2024-01-30T00:16:08.724Z,2.72
2024-01-30T00:18:39.359Z,2.79
2024-01-30T00:21:09.752Z,2.81
2024-01-30T00:23:40.233Z,2.76
2024-01-30T00:26:10.379Z,2.68
2024-01-30T00:28:40.936Z,2.81
2024-01-30T00:31:11.450Z,2.73
2024-01-30T00:33:42.122Z,2.78
2024-01-30T00:36:12.366Z,2.6
2024-01-30T00:38:42.962Z,2.66
2024-01-30T00:41:13.197Z,2.75
2024-01-30T00:43:43.907Z,2.77
2024-01-30T00:46:14.354Z,2.91
2024-01-30T00:48:44.486Z,2.91
2024-01-30T00:51:15.322Z,2.85
2024-01-30T00:53:45.510Z,2.82
2024-01-30T00:56:16.042Z,2.76
2024-01-30T00:58:46.352Z,2.79
2024-01-30T01:01:16.859Z,2.84
2024-01-30T01:03:47.175Z,2.79
2024-01-30T01:06:17.708Z,2.81
2024-01-30T01:08:48.474Z,2.84
2024-01-30T01:11:18.868Z,2.87
2024-01-30T01:13:49.142Z,2.85
2024-01-30T01:16:19.698Z,2.76
2024-01-30T01:18:50.089Z,2.77
2024-01-30T01:21:20.646Z,2.81
2024-01-30T01:23:50.746Z,2.82
2024-01-30T01:26:20.882Z,2.83
2024-01-30T01:28:51.624Z,2.79
2024-01-30T01:31:22.423Z,2.77
2024-01-30T01:33:52.992Z,2.74
2024-01-30T01:36:23.598Z,2.72
2024-01-30T01:38:53.818Z,2.76
2024-01-30T01:41:24.208Z,2.68
2024-01-30T01:43:55.089Z,2.67
2024-01-30T01:46:25.833Z,2.78
2024-01-30T01:48:56.096Z,2.68
2024-01-30T01:51:26.372Z,2.71
2024-01-30T01:53:56.682Z,2.69
2024-01-30T01:56:27.214Z,2.72
2024-01-30T01:58:57.343Z,2.68
2024-01-30T02:01:27.817Z,1.71
2024-01-30T02:03:57.943Z,1.77
2024-01-30T02:06:28.222Z,1.77
2024-01-30T02:08:58.225Z,1.76
2024-01-30T02:11:28.367Z,1.69
2024-01-30T02:13:58.853Z,1.68
2024-01-30T02:16:29.235Z,1.72
2024-01-30T02:18:59.982Z,1.67
2024-01-30T02:21:30.031Z,1.68
2024-01-30T02:24:00.725Z,1.58
2024-01-30T02:26:30.815Z,1.57
2024-01-30T02:29:01.496Z,1.56
2024-01-30T02:31:32.212Z,1.51
2024-01-30T02:34:02.757Z,1.48
2024-01-30T02:36:32.956Z,1.5
2024-01-30T02:39:03.450Z,1.49
2024-01-30T02:41:33.886Z,1.46
2024-01-30T02:44:04.559Z,1.49
2024-01-30T02:46:35.074Z,1.47
2024-01-30T02:49:05.627Z,1.44
2024-01-30T02:51:36.225Z,1.42
2024-01-30T02:54:06.444Z,1.43
2024-01-30T02:56:37.162Z,1.39
2024-01-30T02:59:07.796Z,1.42
2024-01-30T03:01:38.085Z,1.39
2024-01-30T03:04:08.515Z,1.37
2024-01-30T03:06:39.111Z,1.42
2024-01-30T03:09:09.700Z,1.63
2024-01-30T03:11:40.293Z,1.39
2024-01-30T03:14:10.331Z,1.37
2024-01-30T03:16:40.623Z,1.36
2024-01-30T03:19:10.938Z,1.38
2024-01-30T03:21:41.520Z,1.41
2024-01-30T03:24:11.810Z,1.39
2024-01-30T03:26:42.202Z,1.34
2024-01-30T03:29:13.109Z,1.43
2024-01-30T03:31:43.419Z,1.35
2024-01-30T03:34:13.807Z,1.4
2024-01-30T03:36:43.889Z,1.35
2024-01-30T03:39:14.313Z,1.39
2024-01-30T03:41:45.041Z,1.36
2024-01-30T03:44:15.856Z,1.39
2024-01-30T03:46:46.368Z,1.38
2024-01-30T03:49:16.737Z,1.34
2024-01-30T03:51:46.812Z,1.35
2024-01-30T03:54:17.559Z,1.34
2024-01-30T03:56:47.828Z,1.35
2024-01-30T03:59:17.953Z,1.35
2024-01-30T04:01:48.838Z,1.34
2024-01-30T04:04:19.203Z,1.34
2024-01-30T04:06:49.798Z,1.34
2024-01-30T04:09:20.546Z,1.31
2024-01-30T04:11:51.215Z,1.32
2024-01-30T04:14:21.378Z,1.3
2024-01-30T04:16:51.799Z,1.35
2024-01-30T04:19:21.917Z,1.31
2024-01-30T04:21:52.298Z,1.35
2024-01-30T04:24:22.417Z,1.31
2024-01-30T04:26:52.657Z,1.31
2024-01-30T04:29:23.473Z,1.31
2024-01-30T04:31:54.020Z,1.38
2024-01-30T04:34:24.477Z,1.35
2024-01-30T04:36:54.919Z,1.3
2024-01-30T04:39:25.003Z,1.31
2024-01-30T04:41:55.800Z,1.3
2024-01-30T04:44:26.257Z,1.38
2024-01-30T04:46:56.438Z,1.34
2024-01-30T04:49:26.752Z,1.3
2024-01-30T04:51:57.020Z,1.27
2024-01-30T04:54:27.529Z,1.32
2024-01-30T04:56:58.229Z,1.39
2024-01-30T04:59:28.263Z,1.45
2024-01-30T05:01:58.523Z,1.56
2024-01-30T05:04:29.552Z,1.61
2024-01-30T05:06:59.531Z,1.54
2024-01-30T05:09:29.628Z,1.55
2024-01-30T05:11:59.732Z,1.49
2024-01-30T05:14:30.442Z,1.37
2024-01-30T05:17:01.124Z,1.33
2024-01-30T05:19:31.641Z,1.34
2024-01-30T05:22:01.969Z,1.36
2024-01-30T05:24:32.251Z,1.45
2024-01-30T05:27:02.950Z,1.44
2024-01-30T05:29:33.200Z,1.41
2024-01-30T05:32:03.584Z,1.44
2024-01-30T05:34:34.231Z,1.4
2024-01-30T05:37:04.277Z,1.38
2024-01-30T05:39:35.004Z,1.44
2024-01-30T05:42:05.131Z,1.38
2024-01-30T05:44:35.864Z,1.36
2024-01-30T05:47:05.993Z,1.37
2024-01-30T05:49:36.719Z,1.42
2024-01-30T05:52:07.559Z,1.4
2024-01-30T05:54:37.693Z,1.37
2024-01-30T05:57:08.235Z,1.39
2024-01-30T05:59:40.760Z,1.39
2024-01-30T06:02:09.204Z,1.4
2024-01-30T06:04:39.818Z,1.37
2024-01-30T06:07:10.445Z,1.39
2024-01-30T06:09:41.108Z,1.39
2024-01-30T06:12:11.735Z,1.36
2024-01-30T06:14:44.140Z,1.41
2024-01-30T06:17:11.934Z,1.44
2024-01-30T06:19:42.328Z,1.4
2024-01-30T06:22:12.508Z,1.44
2024-01-30T06:24:42.763Z,1.44
2024-01-30T06:27:13.142Z,1.36
2024-01-30T06:29:43.982Z,1.38
2024-01-30T06:32:14.620Z,1.44
2024-01-30T06:34:45.603Z,1.42
2024-01-30T06:37:16.024Z,1.49
2024-01-30T06:39:46.838Z,1.45
2024-01-30T06:42:17.030Z,1.44
2024-01-30T06:44:47.647Z,1.51
2024-01-30T06:47:18.189Z,1.49
2024-01-30T06:49:48.450Z,1.46
2024-01-30T06:52:18.683Z,1.53
2024-01-30T06:54:49.259Z,1.61
2024-01-30T06:57:19.502Z,1.56
2024-01-30T06:59:49.777Z,1.53
2024-01-30T07:02:20.074Z,1.49
2024-01-30T07:04:50.134Z,1.46
2024-01-30T07:07:20.715Z,1.59
2024-01-30T07:09:50.546Z,1.59
2024-01-30T07:12:20.670Z,1.62
2024-01-30T07:14:51.181Z,1.56
2024-01-30T07:17:21.265Z,1.52
2024-01-30T07:19:52.265Z,1.56
2024-01-30T07:22:22.306Z,1.53
2024-01-30T07:24:52.898Z,1.57
2024-01-30T07:27:23.644Z,1.57
2024-01-30T07:29:53.761Z,1.56
2024-01-30T07:32:23.951Z,1.62
2024-01-30T07:35:03.484Z,1.63
2024-01-30T07:37:25.193Z,1.59
2024-01-30T07:39:55.377Z,1.59
2024-01-30T07:42:25.488Z,1.65
2024-01-30T07:44:56.321Z,1.72
2024-01-30T07:47:26.519Z,1.76
2024-01-30T07:49:56.520Z,1.71
2024-01-30T07:52:26.566Z,1.57
2024-01-30T07:54:56.745Z,1.55
2024-01-30T07:57:27.036Z,1.46
2024-01-30T07:59:57.799Z,1.43
2024-01-30T08:02:28.500Z,1.4
2024-01-30T08:04:59.337Z,1.49
2024-01-30T08:07:29.942Z,1.42
2024-01-30T08:10:00.128Z,1.42
2024-01-30T08:12:30.723Z,1.43
2024-01-30T08:15:01.094Z,1.47
2024-01-30T08:17:31.948Z,1.55
2024-01-30T08:20:02.738Z,1.61
2024-01-30T08:22:33.026Z,1.62
2024-01-30T08:25:03.438Z,1.7
2024-01-30T08:27:34.117Z,1.75
2024-01-30T08:30:04.188Z,1.85
2024-01-30T08:32:34.700Z,1.8
2024-01-30T08:35:04.894Z,1.74
2024-01-30T08:37:35.392Z,1.52
2024-01-30T08:40:06.242Z,1.44
2024-01-30T08:42:36.620Z,1.33
2024-01-30T08:45:06.532Z,1.29
2024-01-30T08:47:36.818Z,1.34
2024-01-30T08:50:07.263Z,1.41
2024-01-30T08:52:37.284Z,1.5
2024-01-30T08:55:07.289Z,1.43
2024-01-30T08:57:37.648Z,1.43
2024-01-30T09:00:07.944Z,1.49
2024-01-30T09:02:38.499Z,1.38
2024-01-30T09:05:09.095Z,1.29
2024-01-30T09:07:39.239Z,1.24
2024-01-30T09:10:12.358Z,1.32
2024-01-30T09:12:39.468Z,1.48
2024-01-30T09:15:09.564Z,1.46
2024-01-30T09:17:39.714Z,1.53
2024-01-30T09:20:10.352Z,1.64
2024-01-30T09:22:41.109Z,1.59
2024-01-30T09:25:11.130Z,1.59
2024-01-30T09:27:41.247Z,1.54
2024-01-30T09:30:11.505Z,1.47
2024-01-30T09:32:42.111Z,1.42
2024-01-30T09:35:12.350Z,1.4
2024-01-30T09:37:42.364Z,1.51
2024-01-30T09:40:12.383Z,1.57
2024-01-30T09:42:42.401Z,1.48
2024-01-30T09:45:12.716Z,1.58
2024-01-30T09:47:42.823Z,1.54
2024-01-30T09:50:13.386Z,1.46
2024-01-30T09:52:43.856Z,1.41
2024-01-30T09:55:14.080Z,1.48
2024-01-30T09:57:44.470Z,1.46
2024-01-30T10:00:15.038Z,1.49
2024-01-30T10:02:45.583Z,1.39
2024-01-30T10:05:15.668Z,1.31
2024-01-30T10:07:45.757Z,1.29
2024-01-30T10:10:15.748Z,1.36
2024-01-30T10:12:46.148Z,1.17
2024-01-30T10:15:16.466Z,1.13
2024-01-30T10:17:46.748Z,1
2024-01-30T10:20:17.155Z,1.12
2024-01-30T10:22:47.673Z,1.14
2024-01-30T10:25:18.321Z,1.09
2024-01-30T10:27:49.251Z,1.05
2024-01-30T10:30:19.540Z,0.89
2024-01-30T10:32:50.137Z,0.9
2024-01-30T10:35:20.383Z,0.92
2024-01-30T10:37:50.651Z,0.94
2024-01-30T10:40:20.887Z,0.91
2024-01-30T10:42:51.694Z,0.86
2024-01-30T10:45:22.286Z,0.81
2024-01-30T10:47:52.662Z,0.96
2024-01-30T10:50:23.551Z,0.87
2024-01-30T10:52:53.594Z,0.83
2024-01-30T10:55:24.279Z,0.82
2024-01-30T10:57:54.237Z,0.79
2024-01-30T11:00:24.659Z,0.84
2024-01-30T11:02:55.182Z,0.88
2024-01-30T11:05:25.232Z,0.89
2024-01-30T11:07:55.910Z,1.05
2024-01-30T11:10:26.451Z,1.08
2024-01-30T11:12:57.138Z,1.11
2024-01-30T11:15:27.476Z,1.09
2024-01-30T11:17:57.951Z,0.98
2024-01-30T11:20:28.738Z,0.79
2024-01-30T11:22:58.983Z,0.84
2024-01-30T11:25:29.469Z,0.99
2024-01-30T11:27:59.784Z,0.97
2024-01-30T11:30:30.095Z,0.93
2024-01-30T11:33:00.653Z,0.93
2024-01-30T11:35:31.457Z,0.95
2024-01-30T11:38:02.295Z,1.01
2024-01-30T11:40:32.841Z,0.96
2024-01-30T11:43:03.085Z,0.92
2024-01-30T11:45:33.835Z,0.93
2024-01-30T11:48:04.215Z,0.93
2024-01-30T11:50:34.791Z,0.93
2024-01-30T11:53:05.496Z,1.05
2024-01-30T11:55:35.987Z,1.15
2024-01-30T11:58:06.550Z,0.99
2024-01-30T12:00:37.277Z,0.87
2024-01-30T12:03:07.736Z,0.83
2024-01-30T12:05:38.270Z,0.83
2024-01-30T12:08:08.769Z,0.72
2024-01-30T12:10:39.127Z,0.79
2024-01-30T12:13:10.002Z,0.88
2024-01-30T12:15:40.076Z,0.89
2024-01-30T12:18:10.188Z,0.87
2024-01-30T12:20:40.736Z,0.86
2024-01-30T12:23:11.433Z,0.85
2024-01-30T12:25:41.893Z,0.8
2024-01-30T12:28:12.106Z,0.78
2024-01-30T12:30:42.781Z,0.8
2024-01-30T12:33:13.382Z,0.74
2024-01-30T12:35:49.535Z,0.78
2024-01-30T12:38:14.157Z,0.76
2024-01-30T12:40:44.754Z,0.77
2024-01-30T12:43:21.819Z,0.8
2024-01-30T12:45:44.802Z,0.8
2024-01-30T12:48:15.207Z,0.71
2024-01-30T12:50:45.190Z,0.73
2024-01-30T12:53:15.847Z,0.67
2024-01-30T12:55:45.711Z,0.65
2024-01-30T12:58:16.244Z,0.7
2024-01-30T13:00:47.246Z,0.72
2024-01-30T13:03:17.984Z,0.66
2024-01-30T13:05:48.128Z,0.61
2024-01-30T13:08:18.802Z,0.57
2024-01-30T13:10:50.462Z,0.65
2024-01-30T13:13:20.897Z,0.62
2024-01-30T13:15:50.365Z,0.64
2024-01-30T13:18:20.686Z,0.58
2024-01-30T13:20:50.703Z,0.56
2024-01-30T13:23:20.951Z,0.6
2024-01-30T13:25:51.488Z,0.66
2024-01-30T13:28:21.840Z,0.61
2024-01-30T13:30:52.496Z,0.59
2024-01-30T13:33:22.732Z,0.53
2024-01-30T13:35:53.214Z,0.5
2024-01-30T13:38:23.524Z,0.48
2024-01-30T13:40:54.040Z,0.51
2024-01-30T13:43:24.209Z,0.52
2024-01-30T13:45:54.727Z,0.49
2024-01-30T13:48:24.964Z,0.45
2024-01-30T13:50:55.793Z,0.5
2024-01-30T13:53:26.377Z,0.59
2024-01-30T13:55:56.859Z,0.54
2024-01-30T13:58:27.476Z,0.52
2024-01-30T14:00:58.246Z,0.56
2024-01-30T14:03:28.399Z,0.58
2024-01-30T14:05:59.168Z,0.62
2024-01-30T14:08:29.783Z,0.59
2024-01-30T14:11:00.593Z,0.6
2024-01-30T14:13:30.842Z,0.59
2024-01-30T14:16:01.071Z,0.54
2024-01-30T14:18:31.260Z,0.53
2024-01-30T14:21:01.804Z,0.52
2024-01-30T14:23:32.110Z,0.55
2024-01-30T14:26:02.852Z,0.56
2024-01-30T14:28:33.554Z,0.49
2024-01-30T14:31:03.974Z,0.52
2024-01-30T14:33:34.416Z,0.5
2024-01-30T14:36:04.958Z,0.47
2024-01-30T14:38:35.487Z,0.42
2024-01-30T14:41:06.007Z,0.4
2024-01-30T14:43:36.538Z,0.4
2024-01-30T14:46:07.069Z,0.37
2024-01-30T14:48:37.807Z,0.41
2024-01-30T14:51:08.363Z,0.37
2024-01-30T14:53:39.031Z,0.33
2024-01-30T14:56:09.163Z,0.34
2024-01-30T14:58:39.787Z,0.35
2024-01-30T15:01:10.342Z,0.36
2024-01-30T15:03:40.767Z,0.34
2024-01-30T15:06:11.028Z,0.3
2024-01-30T15:08:41.738Z,0.27
2024-01-30T15:11:11.751Z,0.25
2024-01-30T15:13:42.386Z,0.25
2024-01-30T15:16:12.902Z,0.25
2024-01-30T15:18:43.433Z,0.26
2024-01-30T15:21:13.926Z,0.25
2024-01-30T15:23:44.479Z,0.23
2024-01-30T15:26:15.052Z,0.25
2024-01-30T15:28:45.664Z,0.25
2024-01-30T15:31:16.286Z,0.23
2024-01-30T15:33:46.700Z,0.24
2024-01-30T15:36:17.003Z,0.23
2024-01-30T15:38:47.580Z,0.23
2024-01-30T15:41:18.151Z,0.25
2024-01-30T15:43:48.741Z,0.25
2024-01-30T15:46:19.378Z,0.25
2024-01-30T15:48:49.796Z,0.26
2024-01-30T15:51:20.208Z,0.26
2024-01-30T15:53:50.762Z,0.26
2024-01-30T15:56:21.328Z,0.28
2024-01-30T15:58:51.931Z,0.27
2024-01-30T16:01:22.659Z,0.27
2024-01-30T16:03:53.180Z,0.29
2024-01-30T16:06:23.691Z,0.28
2024-01-30T16:08:56.612Z,0.28
2024-01-30T16:11:24.802Z,0.29
2024-01-30T16:13:55.419Z,0.28
2024-01-30T16:16:26.035Z,0.29
2024-01-30T16:18:56.241Z,0.32
2024-01-30T16:21:26.738Z,0.31
2024-01-30T16:23:57.318Z,0.34
2024-01-30T16:26:27.899Z,0.36
2024-01-30T16:28:58.440Z,0.33
2024-01-30T16:31:29.152Z,0.34
2024-01-30T16:33:59.700Z,0.36
2024-01-30T16:36:30.188Z,0.36
2024-01-30T16:39:00.781Z,0.36
2024-01-30T16:41:32.138Z,0.37
2024-01-30T16:44:01.929Z,0.35
2024-01-30T16:46:32.572Z,0.37
2024-01-30T16:49:03.191Z,0.4
2024-01-30T16:51:33.721Z,0.43
2024-01-30T16:54:04.389Z,0.47
2024-01-30T16:56:34.889Z,0.46
2024-01-30T16:59:05.544Z,0.45
2024-01-30T17:01:36.227Z,0.46
2024-01-30T17:04:06.526Z,0.47
2024-01-30T17:06:37.107Z,0.47
2024-01-30T17:09:07.686Z,0.49
2024-01-30T17:11:38.268Z,0.51
2024-01-30T17:14:08.952Z,0.5
2024-01-30T17:16:39.555Z,0.51
2024-01-30T17:19:10.297Z,0.56
2024-01-30T17:21:40.725Z,0.61
2024-01-30T17:24:11.360Z,0.57
2024-01-30T17:26:45.654Z,0.55
2024-01-30T17:29:12.568Z,0.57
2024-01-30T17:31:43.222Z,0.54
2024-01-30T17:34:14.215Z,0.54
2024-01-30T17:36:44.457Z,0.53
2024-01-30T17:39:15.152Z,0.55
2024-01-30T17:41:45.721Z,0.52
2024-01-30T17:44:16.360Z,0.55
2024-01-30T17:46:46.991Z,0.55
2024-01-30T17:49:17.669Z,0.58
2024-01-30T17:51:48.240Z,0.56
2024-01-30T17:54:18.879Z,0.55
2024-01-30T17:56:49.511Z,0.57
2024-01-30T17:59:20.102Z,0.57
2024-01-30T18:01:51.016Z,0.57
2024-01-30T18:04:21.277Z,0.6
2024-01-30T18:06:52.037Z,0.59
2024-01-30T18:09:22.147Z,0.62
2024-01-30T18:11:52.686Z,0.63
2024-01-30T18:14:23.383Z,0.66
2024-01-30T18:16:54.033Z,0.61
2024-01-30T18:19:24.689Z,0.62
2024-01-30T18:21:55.291Z,0.62
2024-01-30T18:24:25.973Z,0.63
2024-01-30T18:26:56.472Z,0.67
2024-01-30T18:29:27.162Z,0.68
2024-01-30T18:31:57.757Z,0.68
2024-01-30T18:34:28.630Z,0.68
2024-01-30T18:36:59.383Z,0.69
2024-01-30T18:39:29.399Z,0.74
2024-01-30T18:41:59.994Z,0.78
2024-01-30T18:44:30.539Z,0.71
2024-01-30T18:47:00.711Z,0.71
2024-01-30T18:49:31.494Z,0.67
2024-01-30T18:52:02.034Z,0.64
2024-01-30T18:54:32.820Z,0.56
2024-01-30T18:57:03.305Z,0.55
2024-01-30T18:59:33.937Z,0.55
2024-01-30T19:02:04.650Z,0.52
2024-01-30T19:04:35.451Z,0.52
2024-01-30T19:07:05.878Z,0.53
2024-01-30T19:09:36.536Z,0.53
2024-01-30T19:12:07.143Z,0.48
2024-01-30T19:14:37.833Z,0.44
2024-01-30T19:17:08.469Z,0.43
2024-01-30T19:19:39.107Z,0.42
2024-01-30T19:22:09.794Z,0.41
2024-01-30T19:24:40.489Z,0.4
2024-01-30T19:27:11.245Z,0.4
2024-01-30T19:29:41.662Z,0.39
2024-01-30T19:32:12.330Z,0.38
2024-01-30T19:34:43.014Z,0.38
2024-01-30T19:37:13.640Z,0.38
2024-01-30T19:39:44.363Z,0.38
2024-01-30T19:42:14.950Z,0.38
2024-01-30T19:44:45.601Z,0.39
2024-01-30T19:47:16.274Z,0.41
2024-01-30T19:49:46.974Z,0.39
2024-01-30T19:52:17.581Z,0.38
2024-01-30T19:54:48.244Z,0.36
2024-01-30T19:57:18.964Z,0.36
2024-01-30T19:59:49.561Z,0.36
2024-01-30T20:02:20.292Z,0.35
2024-01-30T20:04:50.944Z,0.39
2024-01-30T20:07:21.725Z,0.37
2024-01-30T20:09:52.213Z,0.35
2024-01-30T20:12:22.883Z,0.35
2024-01-30T20:14:53.530Z,0.36
2024-01-30T20:17:24.137Z,0.34
2024-01-30T20:19:54.991Z,0.32
2024-01-30T20:22:25.505Z,0.3
2024-01-30T20:25:03.684Z,0.3
2024-01-30T20:27:26.781Z,0.28
2024-01-30T20:29:57.434Z,0.3
2024-01-30T20:32:28.104Z,0.3
2024-01-30T20:34:58.742Z,0.3
2024-01-30T20:37:29.480Z,0.28
2024-01-30T20:40:00.187Z,0.29
2024-01-30T20:42:30.878Z,0.29
2024-01-30T20:45:01.520Z,0.28
2024-01-30T20:47:32.152Z,0.27
2024-01-30T20:50:03.127Z,0.27
2024-01-30T20:52:33.568Z,0.27
2024-01-30T20:55:04.147Z,0.26
2024-01-30T20:57:34.771Z,0.26
2024-01-30T21:00:05.504Z,0.27
2024-01-30T21:02:36.130Z,0.25
2024-01-30T21:05:06.976Z,0.28
2024-01-30T21:07:37.563Z,0.26
2024-01-30T21:10:08.155Z,0.26
2024-01-30T21:12:38.797Z,0.27
2024-01-30T21:15:09.108Z,0.27
2024-01-30T21:17:39.883Z,0.27
2024-01-30T21:20:10.619Z,0.29
2024-01-30T21:22:41.287Z,0.27
2024-01-30T21:25:11.854Z,0.26
2024-01-30T21:27:42.588Z,0.32
2024-01-30T21:30:12.683Z,0.32
2024-01-30T21:32:43.358Z,0.28
2024-01-30T21:35:13.986Z,0.29
2024-01-30T21:37:44.714Z,0.25
2024-01-30T21:40:15.378Z,0.24
2024-01-30T21:42:46.022Z,0.24
2024-01-30T21:45:16.698Z,0.25
2024-01-30T21:47:47.446Z,0.25
2024-01-30T21:50:18.386Z,0.25
2024-01-30T21:52:48.763Z,0.26
2024-01-30T21:55:19.476Z,0.21
2024-01-30T21:57:50.123Z,0.23
2024-01-30T22:00:20.788Z,0.23
2024-01-30T22:02:51.205Z,0.23
2024-01-30T22:05:21.828Z,0.23
2024-01-30T22:07:52.563Z,0.24
2024-01-30T22:10:23.027Z,0.27
2024-01-30T22:12:53.642Z,0.26
2024-01-30T22:15:24.284Z,0.25
2024-01-30T22:17:54.992Z,0.23
2024-01-30T22:20:25.686Z,0.22
2024-01-30T22:22:56.342Z,0.22
2024-01-30T22:25:27.083Z,0.21
2024-01-30T22:27:57.860Z,0.22
2024-01-30T22:30:28.437Z,0.2
2024-01-30T22:32:59.214Z,0.22
2024-01-30T22:35:29.869Z,0.22
2024-01-30T22:38:00.672Z,0.22
2024-01-30T22:40:31.281Z,0.23
2024-01-30T22:43:02.027Z,0.21
2024-01-30T22:45:32.742Z,0.21
2024-01-30T22:48:03.504Z,0.21
2024-01-30T22:50:34.048Z,0.2
2024-01-30T22:53:04.758Z,0.19
2024-01-30T22:55:35.548Z,0.19
2024-01-30T22:58:06.251Z,0.18
2024-01-30T23:00:36.854Z,0.18
2024-01-30T23:03:07.538Z,0.18
2024-01-30T23:05:38.263Z,0.17
2024-01-30T23:08:08.980Z,0.16
2024-01-30T23:10:39.927Z,0.15
2024-01-30T23:13:10.558Z,0.15
2024-01-30T23:15:41.266Z,0.15
2024-01-30T23:18:12.246Z,0.15
2024-01-30T23:20:42.921Z,0.16
2024-01-30T23:23:13.596Z,0.15
2024-01-30T23:25:44.411Z,0.16
2024-01-30T23:28:15.226Z,0.16
2024-01-30T23:30:46.072Z,0.15
2024-01-30T23:33:16.847Z,0.15
2024-01-30T23:35:47.269Z,0.16
2024-01-30T23:38:18.028Z,0.15
2024-01-30T23:40:48.834Z,0.16
2024-01-30T23:43:19.614Z,0.15
2024-01-30T23:45:50.296Z,0.15
2024-01-30T23:48:21.137Z,0.15
2024-01-30T23:50:51.765Z,0.15
2024-01-30T23:53:22.539Z,0.15
2024-01-30T23:55:53.271Z,0.16
2024-01-30T23:58:24.062Z,0.13
